sensor_id;sensor_type;location;lat;lon;timestamp;pressure;altitude;pressure_sealevel;temperature;humidity
23321;BME280;33376;51.306;4.752;2023-05-20T00:02:22;102713.41;;;12.31;100.00
23321;BME280;33376;51.306;4.752;2023-05-20T00:04:48;102717.16;;;12.25;100.00
23321;BME280;33376;51.306;4.752;2023-05-20T00:07:13;102715.03;;;12.09;100.00
23321;BME280;33376;51.306;4.752;2023-05-20T00:09:38;102713.16;;;12.12;100.00
23321;BME280;33376;51.306;4.752;2023-05-20T00:12:04;102722.13;;;12.08;100.00
23321;BME280;33376;51.306;4.752;2023-05-20T00:14:29;102716.22;;;11.99;100.00
23321;BME280;33376;51.306;4.752;2023-05-20T00:16:54;102726.03;;;11.97;100.00
23321;BME280;33376;51.306;4.752;2023-05-20T00:19:20;102717.59;;;12.12;100.00
23321;BME280;33376;51.306;4.752;2023-05-20T00:21:45;102717.78;;;12.06;100.00
23321;BME280;33376;51.306;4.752;2023-05-20T00:24:10;102719.47;;;12.08;100.00
23321;BME280;33376;51.306;4.752;2023-05-20T00:26:36;102718.19;;;11.92;100.00
23321;BME280;33376;51.306;4.752;2023-05-20T00:29:01;102716.41;;;11.93;100.00
23321;BME280;33376;51.306;4.752;2023-05-20T00:31:26;102723.16;;;11.75;100.00
23321;BME280;33376;51.306;4.752;2023-05-20T00:33:51;102724.81;;;11.77;100.00
23321;BME280;33376;51.306;4.752;2023-05-20T00:36:17;102724.13;;;11.72;100.00
23321;BME280;33376;51.306;4.752;2023-05-20T00:38:42;102719.84;;;11.67;100.00
23321;BME280;33376;51.306;4.752;2023-05-20T00:41:07;102725.84;;;11.73;100.00
23321;BME280;33376;51.306;4.752;2023-05-20T00:43:33;102718.72;;;11.75;100.00
23321;BME280;33376;51.306;4.752;2023-05-20T00:45:58;102724.16;;;11.71;100.00
23321;BME280;33376;51.306;4.752;2023-05-20T00:48:24;102719.00;;;11.65;100.00
23321;BME280;33376;51.306;4.752;2023-05-20T00:50:49;102713.59;;;11.68;100.00
23321;BME280;33376;51.306;4.752;2023-05-20T00:53:15;102712.91;;;11.61;100.00
23321;BME280;33376;51.306;4.752;2023-05-20T00:55:41;102709.31;;;11.64;100.00
23321;BME280;33376;51.306;4.752;2023-05-20T00:58:06;102722.88;;;11.53;100.00
23321;BME280;33376;51.306;4.752;2023-05-20T01:00:32;102715.91;;;11.49;100.00
23321;BME280;33376;51.306;4.752;2023-05-20T01:03:00;102714.81;;;11.56;100.00
23321;BME280;33376;51.306;4.752;2023-05-20T01:05:25;102715.63;;;11.58;100.00
23321;BME280;33376;51.306;4.752;2023-05-20T01:07:51;102709.66;;;11.50;100.00
23321;BME280;33376;51.306;4.752;2023-05-20T01:10:16;102709.56;;;11.55;100.00
23321;BME280;33376;51.306;4.752;2023-05-20T01:12:42;102707.00;;;11.50;100.00
23321;BME280;33376;51.306;4.752;2023-05-20T01:15:11;102710.59;;;11.49;100.00
23321;BME280;33376;51.306;4.752;2023-05-20T01:17:43;102718.06;;;11.35;100.00
23321;BME280;33376;51.306;4.752;2023-05-20T01:20:10;102718.72;;;11.43;100.00
23321;BME280;33376;51.306;4.752;2023-05-20T01:22:37;102716.06;;;11.43;100.00
23321;BME280;33376;51.306;4.752;2023-05-20T01:25:03;102723.13;;;11.44;100.00
23321;BME280;33376;51.306;4.752;2023-05-20T01:27:29;102731.22;;;11.40;100.00
23321;BME280;33376;51.306;4.752;2023-05-20T01:29:55;102724.31;;;11.34;100.00
23321;BME280;33376;51.306;4.752;2023-05-20T01:32:25;102713.69;;;11.33;100.00
23321;BME280;33376;51.306;4.752;2023-05-20T01:34:51;102723.56;;;11.29;100.00
23321;BME280;33376;51.306;4.752;2023-05-20T01:37:18;102714.16;;;11.18;100.00
23321;BME280;33376;51.306;4.752;2023-05-20T01:39:43;102704.38;;;11.20;100.00
23321;BME280;33376;51.306;4.752;2023-05-20T01:42:09;102705.91;;;11.27;100.00
23321;BME280;33376;51.306;4.752;2023-05-20T01:44:35;102699.16;;;11.15;100.00
23321;BME280;33376;51.306;4.752;2023-05-20T01:47:01;102706.31;;;11.13;100.00
23321;BME280;33376;51.306;4.752;2023-05-20T01:49:26;102698.13;;;11.21;100.00
23321;BME280;33376;51.306;4.752;2023-05-20T01:51:52;102691.19;;;11.17;100.00
23321;BME280;33376;51.306;4.752;2023-05-20T01:54:17;102689.47;;;11.14;100.00
23321;BME280;33376;51.306;4.752;2023-05-20T01:56:43;102687.84;;;11.09;100.00
23321;BME280;33376;51.306;4.752;2023-05-20T01:59:08;102690.63;;;11.04;100.00
23321;BME280;33376;51.306;4.752;2023-05-20T02:01:33;102686.22;;;11.03;100.00
23321;BME280;33376;51.306;4.752;2023-05-20T02:03:59;102682.28;;;11.18;100.00
23321;BME280;33376;51.306;4.752;2023-05-20T02:06:24;102684.47;;;11.04;100.00
23321;BME280;33376;51.306;4.752;2023-05-20T02:08:49;102674.06;;;10.95;100.00
23321;BME280;33376;51.306;4.752;2023-05-20T02:11:14;102680.22;;;10.97;100.00
23321;BME280;33376;51.306;4.752;2023-05-20T02:13:40;102669.63;;;10.95;100.00
23321;BME280;33376;51.306;4.752;2023-05-20T02:16:05;102668.75;;;10.95;100.00
23321;BME280;33376;51.306;4.752;2023-05-20T02:18:30;102671.38;;;10.96;100.00
23321;BME280;33376;51.306;4.752;2023-05-20T02:21:00;102670.44;;;10.99;100.00
23321;BME280;33376;51.306;4.752;2023-05-20T02:23:26;102673.63;;;10.79;100.00
23321;BME280;33376;51.306;4.752;2023-05-20T02:25:51;102672.38;;;10.92;100.00
23321;BME280;33376;51.306;4.752;2023-05-20T02:28:16;102660.78;;;10.95;100.00
23321;BME280;33376;51.306;4.752;2023-05-20T02:30:41;102656.41;;;10.94;100.00
23321;BME280;33376;51.306;4.752;2023-05-20T02:33:07;102655.69;;;10.87;100.00
23321;BME280;33376;51.306;4.752;2023-05-20T02:35:33;102654.13;;;10.80;100.00
23321;BME280;33376;51.306;4.752;2023-05-20T02:37:59;102648.97;;;10.74;100.00
23321;BME280;33376;51.306;4.752;2023-05-20T02:40:24;102655.22;;;10.73;100.00
23321;BME280;33376;51.306;4.752;2023-05-20T02:42:50;102650.75;;;10.75;100.00
23321;BME280;33376;51.306;4.752;2023-05-20T02:45:15;102650.78;;;10.74;100.00
23321;BME280;33376;51.306;4.752;2023-05-20T02:47:40;102647.25;;;10.73;100.00
23321;BME280;33376;51.306;4.752;2023-05-20T02:50:06;102648.31;;;10.66;100.00
23321;BME280;33376;51.306;4.752;2023-05-20T02:52:31;102634.47;;;10.55;100.00
23321;BME280;33376;51.306;4.752;2023-05-20T02:54:57;102632.56;;;10.60;100.00
23321;BME280;33376;51.306;4.752;2023-05-20T02:57:22;102623.00;;;10.53;100.00
23321;BME280;33376;51.306;4.752;2023-05-20T02:59:48;102618.41;;;10.60;100.00
23321;BME280;33376;51.306;4.752;2023-05-20T03:02:13;102624.56;;;10.62;100.00
23321;BME280;33376;51.306;4.752;2023-05-20T03:04:38;102615.69;;;10.63;100.00
23321;BME280;33376;51.306;4.752;2023-05-20T03:07:05;102607.00;;;10.58;100.00
23321;BME280;33376;51.306;4.752;2023-05-20T03:09:31;102615.19;;;10.49;100.00
23321;BME280;33376;51.306;4.752;2023-05-20T03:11:56;102608.78;;;10.57;100.00
23321;BME280;33376;51.306;4.752;2023-05-20T03:14:22;102607.41;;;10.75;100.00
23321;BME280;33376;51.306;4.752;2023-05-20T03:16:47;102606.56;;;10.73;100.00
23321;BME280;33376;51.306;4.752;2023-05-20T03:19:12;102593.34;;;10.71;100.00
23321;BME280;33376;51.306;4.752;2023-05-20T03:21:38;102598.81;;;10.65;100.00
23321;BME280;33376;51.306;4.752;2023-05-20T03:24:03;102585.78;;;10.58;100.00
23321;BME280;33376;51.306;4.752;2023-05-20T03:26:28;102577.69;;;10.62;100.00
23321;BME280;33376;51.306;4.752;2023-05-20T03:28:54;102578.03;;;10.49;100.00
23321;BME280;33376;51.306;4.752;2023-05-20T03:31:19;102571.41;;;10.32;100.00
23321;BME280;33376;51.306;4.752;2023-05-20T03:33:45;102576.84;;;10.28;100.00
23321;BME280;33376;51.306;4.752;2023-05-20T03:36:10;102565.72;;;10.48;100.00
23321;BME280;33376;51.306;4.752;2023-05-20T03:38:38;102562.66;;;10.30;100.00
23321;BME280;33376;51.306;4.752;2023-05-20T03:41:03;102549.25;;;10.35;100.00
23321;BME280;33376;51.306;4.752;2023-05-20T03:43:29;102545.59;;;10.39;100.00
23321;BME280;33376;51.306;4.752;2023-05-20T03:45:57;102543.78;;;10.41;100.00
23321;BME280;33376;51.306;4.752;2023-05-20T03:48:22;102536.84;;;10.37;100.00
23321;BME280;33376;51.306;4.752;2023-05-20T03:50:50;102529.56;;;10.44;100.00
23321;BME280;33376;51.306;4.752;2023-05-20T03:53:15;102535.47;;;10.53;100.00
23321;BME280;33376;51.306;4.752;2023-05-20T03:55:44;102525.66;;;10.57;100.00
23321;BME280;33376;51.306;4.752;2023-05-20T03:58:10;102533.78;;;10.51;100.00
23321;BME280;33376;51.306;4.752;2023-05-20T04:00:45;102532.78;;;10.56;100.00
23321;BME280;33376;51.306;4.752;2023-05-20T04:03:13;102536.34;;;10.54;100.00
23321;BME280;33376;51.306;4.752;2023-05-20T04:05:38;102539.97;;;10.51;100.00
23321;BME280;33376;51.306;4.752;2023-05-20T04:08:03;102538.19;;;10.52;100.00
23321;BME280;33376;51.306;4.752;2023-05-20T04:10:29;102533.44;;;10.63;100.00
23321;BME280;33376;51.306;4.752;2023-05-20T04:12:56;102533.56;;;10.58;100.00
23321;BME280;33376;51.306;4.752;2023-05-20T04:15:21;102531.84;;;10.57;100.00
23321;BME280;33376;51.306;4.752;2023-05-20T04:17:48;102532.47;;;10.67;100.00
23321;BME280;33376;51.306;4.752;2023-05-20T04:20:14;102531.66;;;10.63;100.00
23321;BME280;33376;51.306;4.752;2023-05-20T04:22:39;102542.06;;;10.71;100.00
23321;BME280;33376;51.306;4.752;2023-05-20T04:25:05;102543.88;;;10.70;100.00
23321;BME280;33376;51.306;4.752;2023-05-20T04:27:31;102542.84;;;10.74;100.00
23321;BME280;33376;51.306;4.752;2023-05-20T04:29:59;102541.03;;;10.76;100.00
23321;BME280;33376;51.306;4.752;2023-05-20T04:32:26;102532.97;;;10.79;100.00
23321;BME280;33376;51.306;4.752;2023-05-20T04:34:51;102546.06;;;10.85;100.00
23321;BME280;33376;51.306;4.752;2023-05-20T04:37:18;102544.84;;;10.97;100.00
23321;BME280;33376;51.306;4.752;2023-05-20T04:39:43;102554.38;;;11.04;100.00
23321;BME280;33376;51.306;4.752;2023-05-20T04:42:12;102562.91;;;11.15;100.00
23321;BME280;33376;51.306;4.752;2023-05-20T04:44:37;102574.22;;;11.21;100.00
23321;BME280;33376;51.306;4.752;2023-05-20T04:47:03;102582.34;;;11.44;100.00
23321;BME280;33376;51.306;4.752;2023-05-20T04:49:28;102585.88;;;11.45;100.00
23321;BME280;33376;51.306;4.752;2023-05-20T04:51:54;102584.53;;;11.59;100.00
23321;BME280;33376;51.306;4.752;2023-05-20T04:54:19;102598.09;;;11.79;100.00
23321;BME280;33376;51.306;4.752;2023-05-20T04:56:44;102610.38;;;11.84;100.00
23321;BME280;33376;51.306;4.752;2023-05-20T04:59:10;102603.44;;;11.78;100.00
23321;BME280;33376;51.306;4.752;2023-05-20T05:01:36;102609.09;;;11.95;100.00
23321;BME280;33376;51.306;4.752;2023-05-20T05:04:01;102610.66;;;12.02;100.00
23321;BME280;33376;51.306;4.752;2023-05-20T05:06:29;102610.69;;;12.01;100.00
23321;BME280;33376;51.306;4.752;2023-05-20T05:08:54;102609.59;;;12.08;100.00
23321;BME280;33376;51.306;4.752;2023-05-20T05:11:20;102608.91;;;12.27;100.00
23321;BME280;33376;51.306;4.752;2023-05-20T05:13:45;102617.03;;;12.23;100.00
23321;BME280;33376;51.306;4.752;2023-05-20T05:16:10;102616.53;;;12.38;100.00
23321;BME280;33376;51.306;4.752;2023-05-20T05:18:36;102613.56;;;12.47;100.00
23321;BME280;33376;51.306;4.752;2023-05-20T05:21:01;102619.44;;;12.56;100.00
23321;BME280;33376;51.306;4.752;2023-05-20T05:23:27;102606.84;;;13.34;100.00
23321;BME280;33376;51.306;4.752;2023-05-20T05:25:53;102594.09;;;14.49;100.00
23321;BME280;33376;51.306;4.752;2023-05-20T05:28:18;102569.03;;;15.49;100.00
23321;BME280;33376;51.306;4.752;2023-05-20T05:30:44;102536.13;;;16.01;100.00
23321;BME280;33376;51.306;4.752;2023-05-20T05:33:09;102533.22;;;16.23;100.00
23321;BME280;33376;51.306;4.752;2023-05-20T05:35:34;102513.19;;;16.81;100.00
23321;BME280;33376;51.306;4.752;2023-05-20T05:38:00;102480.81;;;17.17;100.00
23321;BME280;33376;51.306;4.752;2023-05-20T05:40:25;102476.94;;;17.07;100.00
23321;BME280;33376;51.306;4.752;2023-05-20T05:42:51;102458.38;;;16.87;100.00
23321;BME280;33376;51.306;4.752;2023-05-20T05:45:17;102448.91;;;17.12;100.00
23321;BME280;33376;51.306;4.752;2023-05-20T05:47:42;102416.88;;;17.86;100.00
23321;BME280;33376;51.306;4.752;2023-05-20T05:50:07;102403.91;;;18.08;100.00
23321;BME280;33376;51.306;4.752;2023-05-20T05:52:34;102361.16;;;18.19;100.00
23321;BME280;33376;51.306;4.752;2023-05-20T05:54:59;102341.97;;;18.53;100.00
23321;BME280;33376;51.306;4.752;2023-05-20T05:57:24;102300.63;;;18.82;100.00
23321;BME280;33376;51.306;4.752;2023-05-20T05:59:49;102301.50;;;18.42;100.00
23321;BME280;33376;51.306;4.752;2023-05-20T06:02:15;102305.59;;;18.33;100.00
23321;BME280;33376;51.306;4.752;2023-05-20T06:04:40;102337.84;;;17.62;100.00
23321;BME280;33376;51.306;4.752;2023-05-20T06:07:05;102342.66;;;17.57;100.00
23321;BME280;33376;51.306;4.752;2023-05-20T06:09:31;102303.00;;;18.86;100.00
23321;BME280;33376;51.306;4.752;2023-05-20T06:11:56;102294.94;;;18.86;100.00
23321;BME280;33376;51.306;4.752;2023-05-20T06:14:21;102204.75;;;19.34;100.00
23321;BME280;33376;51.306;4.752;2023-05-20T06:16:47;102185.91;;;19.47;100.00
23321;BME280;33376;51.306;4.752;2023-05-20T06:19:12;102207.75;;;19.30;100.00
23321;BME280;33376;51.306;4.752;2023-05-20T06:21:37;102220.63;;;18.73;100.00
23321;BME280;33376;51.306;4.752;2023-05-20T06:24:03;102215.84;;;18.90;100.00
23321;BME280;33376;51.306;4.752;2023-05-20T06:26:28;102227.72;;;18.47;100.00
23321;BME280;33376;51.306;4.752;2023-05-20T06:28:53;102242.75;;;18.50;100.00
23321;BME280;33376;51.306;4.752;2023-05-20T06:31:18;102220.50;;;19.26;100.00
23321;BME280;33376;51.306;4.752;2023-05-20T06:33:44;102152.97;;;20.17;100.00
23321;BME280;33376;51.306;4.752;2023-05-20T06:36:09;102101.78;;;19.81;100.00
23321;BME280;33376;51.306;4.752;2023-05-20T06:38:35;102094.94;;;20.00;100.00
23321;BME280;33376;51.306;4.752;2023-05-20T06:41:00;102068.22;;;20.33;100.00
23321;BME280;33376;51.306;4.752;2023-05-20T06:43:26;102072.13;;;20.29;100.00
23321;BME280;33376;51.306;4.752;2023-05-20T06:45:52;102077.31;;;19.60;100.00
23321;BME280;33376;51.306;4.752;2023-05-20T06:48:17;102031.34;;;20.91;100.00
23321;BME280;33376;51.306;4.752;2023-05-20T06:50:43;101975.13;;;21.08;100.00
23321;BME280;33376;51.306;4.752;2023-05-20T06:53:09;102006.56;;;20.75;100.00
23321;BME280;33376;51.306;4.752;2023-05-20T06:55:35;101983.06;;;20.77;100.00
23321;BME280;33376;51.306;4.752;2023-05-20T06:58:01;101952.06;;;20.82;100.00
23321;BME280;33376;51.306;4.752;2023-05-20T07:00:26;101906.41;;;21.66;100.00
23321;BME280;33376;51.306;4.752;2023-05-20T07:02:51;101902.72;;;21.67;100.00
23321;BME280;33376;51.306;4.752;2023-05-20T07:05:16;101840.41;;;22.11;100.00
23321;BME280;33376;51.306;4.752;2023-05-20T07:07:42;101885.66;;;21.46;100.00
23321;BME280;33376;51.306;4.752;2023-05-20T07:10:07;101876.38;;;21.91;100.00
23321;BME280;33376;51.306;4.752;2023-05-20T07:12:32;101872.19;;;21.66;100.00
23321;BME280;33376;51.306;4.752;2023-05-20T07:14:58;101889.09;;;21.68;100.00
23321;BME280;33376;51.306;4.752;2023-05-20T07:17:23;101888.16;;;21.90;100.00
23321;BME280;33376;51.306;4.752;2023-05-20T07:19:49;101854.97;;;21.99;100.00
23321;BME280;33376;51.306;4.752;2023-05-20T07:22:14;101821.41;;;23.01;100.00
23321;BME280;33376;51.306;4.752;2023-05-20T07:24:39;101854.06;;;21.89;100.00
23321;BME280;33376;51.306;4.752;2023-05-20T07:27:05;101867.25;;;21.40;100.00
23321;BME280;33376;51.306;4.752;2023-05-20T07:29:30;101922.28;;;21.91;100.00
23321;BME280;33376;51.306;4.752;2023-05-20T07:31:55;101886.91;;;21.31;100.00
23321;BME280;33376;51.306;4.752;2023-05-20T07:34:20;101927.31;;;21.53;100.00
23321;BME280;33376;51.306;4.752;2023-05-20T07:36:46;101903.47;;;21.37;100.00
23321;BME280;33376;51.306;4.752;2023-05-20T07:39:12;101901.03;;;21.66;100.00
23321;BME280;33376;51.306;4.752;2023-05-20T07:41:38;101873.72;;;21.17;100.00
23321;BME280;33376;51.306;4.752;2023-05-20T07:44:03;101900.41;;;21.31;100.00
23321;BME280;33376;51.306;4.752;2023-05-20T07:46:29;101880.47;;;21.43;100.00
23321;BME280;33376;51.306;4.752;2023-05-20T07:48:54;101857.28;;;22.24;100.00
23321;BME280;33376;51.306;4.752;2023-05-20T07:51:20;101785.13;;;22.25;100.00
23321;BME280;33376;51.306;4.752;2023-05-20T07:53:45;101730.94;;;22.66;100.00
23321;BME280;33376;51.306;4.752;2023-05-20T07:56:10;101771.38;;;22.37;100.00
23321;BME280;33376;51.306;4.752;2023-05-20T07:58:36;101796.88;;;21.00;100.00
23321;BME280;33376;51.306;4.752;2023-05-20T08:01:01;101748.13;;;22.16;100.00
23321;BME280;33376;51.306;4.752;2023-05-20T08:03:26;101755.28;;;21.96;100.00
23321;BME280;33376;51.306;4.752;2023-05-20T08:05:52;101764.84;;;21.59;100.00
23321;BME280;33376;51.306;4.752;2023-05-20T08:08:17;101813.00;;;21.74;100.00
23321;BME280;33376;51.306;4.752;2023-05-20T08:10:42;101745.69;;;22.03;100.00
23321;BME280;33376;51.306;4.752;2023-05-20T08:13:08;101764.75;;;21.81;100.00
23321;BME280;33376;51.306;4.752;2023-05-20T08:15:34;101745.41;;;22.46;100.00
23321;BME280;33376;51.306;4.752;2023-05-20T08:17:59;101606.25;;;23.17;100.00
23321;BME280;33376;51.306;4.752;2023-05-20T08:20:25;101699.66;;;22.73;100.00
23321;BME280;33376;51.306;4.752;2023-05-20T08:22:50;101680.38;;;22.47;100.00
23321;BME280;33376;51.306;4.752;2023-05-20T08:25:16;101679.78;;;22.34;100.00
23321;BME280;33376;51.306;4.752;2023-05-20T08:27:41;101628.63;;;24.46;100.00
23321;BME280;33376;51.306;4.752;2023-05-20T08:30:06;101609.53;;;22.91;100.00
23321;BME280;33376;51.306;4.752;2023-05-20T08:32:34;101657.53;;;22.12;100.00
23321;BME280;33376;51.306;4.752;2023-05-20T08:34:59;101690.72;;;22.33;100.00
23321;BME280;33376;51.306;4.752;2023-05-20T08:37:26;101707.13;;;22.41;100.00
23321;BME280;33376;51.306;4.752;2023-05-20T08:39:51;101737.41;;;21.54;100.00
23321;BME280;33376;51.306;4.752;2023-05-20T08:42:19;101761.88;;;20.78;100.00
23321;BME280;33376;51.306;4.752;2023-05-20T08:44:45;101801.47;;;21.52;100.00
23321;BME280;33376;51.306;4.752;2023-05-20T08:47:11;101771.25;;;20.95;100.00
23321;BME280;33376;51.306;4.752;2023-05-20T08:49:37;101766.63;;;21.49;100.00
23321;BME280;33376;51.306;4.752;2023-05-20T08:52:02;101751.88;;;21.32;100.00
23321;BME280;33376;51.306;4.752;2023-05-20T08:54:31;101728.50;;;21.63;100.00
23321;BME280;33376;51.306;4.752;2023-05-20T08:57:01;101721.69;;;21.68;100.00
23321;BME280;33376;51.306;4.752;2023-05-20T08:59:28;101745.09;;;21.58;100.00
23321;BME280;33376;51.306;4.752;2023-05-20T09:01:53;101698.81;;;21.84;100.00
23321;BME280;33376;51.306;4.752;2023-05-20T09:04:19;101677.81;;;22.36;100.00
23321;BME280;33376;51.306;4.752;2023-05-20T09:06:44;101635.44;;;23.23;100.00
23321;BME280;33376;51.306;4.752;2023-05-20T09:09:13;101646.16;;;22.86;100.00
23321;BME280;33376;51.306;4.752;2023-05-20T09:11:40;101622.53;;;22.78;100.00
23321;BME280;33376;51.306;4.752;2023-05-20T09:14:05;101592.09;;;22.57;100.00
23321;BME280;33376;51.306;4.752;2023-05-20T09:16:31;101641.94;;;22.25;100.00
23321;BME280;33376;51.306;4.752;2023-05-20T09:18:56;101570.28;;;22.49;100.00
23321;BME280;33376;51.306;4.752;2023-05-20T09:21:27;101593.88;;;22.19;100.00
23321;BME280;33376;51.306;4.752;2023-05-20T09:23:53;101595.41;;;22.21;100.00
23321;BME280;33376;51.306;4.752;2023-05-20T09:26:21;101619.34;;;22.35;100.00
23321;BME280;33376;51.306;4.752;2023-05-20T09:28:47;101566.34;;;23.18;100.00
23321;BME280;33376;51.306;4.752;2023-05-20T09:31:12;101575.53;;;22.13;100.00
23321;BME280;33376;51.306;4.752;2023-05-20T09:33:38;101594.91;;;22.46;100.00
23321;BME280;33376;51.306;4.752;2023-05-20T09:36:07;101615.91;;;22.24;100.00
23321;BME280;33376;51.306;4.752;2023-05-20T09:38:33;101618.06;;;22.49;100.00
23321;BME280;33376;51.306;4.752;2023-05-20T09:41:11;101617.63;;;22.44;100.00
23321;BME280;33376;51.306;4.752;2023-05-20T09:43:40;101620.75;;;22.30;100.00
23321;BME280;33376;51.306;4.752;2023-05-20T09:46:06;101573.66;;;22.23;100.00
23321;BME280;33376;51.306;4.752;2023-05-20T09:48:32;101656.47;;;22.33;100.00
23321;BME280;33376;51.306;4.752;2023-05-20T09:51:00;101647.00;;;22.96;100.00
23321;BME280;33376;51.306;4.752;2023-05-20T09:53:26;101626.06;;;22.98;100.00
23321;BME280;33376;51.306;4.752;2023-05-20T09:55:52;101603.94;;;22.07;100.00
23321;BME280;33376;51.306;4.752;2023-05-20T09:58:19;101637.56;;;21.33;100.00
23321;BME280;33376;51.306;4.752;2023-05-20T10:00:44;101680.06;;;20.89;100.00
23321;BME280;33376;51.306;4.752;2023-05-20T10:03:10;101762.13;;;21.59;100.00
23321;BME280;33376;51.306;4.752;2023-05-20T10:05:37;101660.25;;;22.21;100.00
23321;BME280;33376;51.306;4.752;2023-05-20T10:13:10;101566.16;;;22.64;100.00
23321;BME280;33376;51.306;4.752;2023-05-20T10:15:42;101582.22;;;22.75;100.00
23321;BME280;33376;51.306;4.752;2023-05-20T10:20:46;101584.03;;;23.13;100.00
23321;BME280;33376;51.306;4.752;2023-05-20T10:25:49;101607.00;;;22.52;100.00
23321;BME280;33376;51.306;4.752;2023-05-20T10:28:16;101543.09;;;22.22;100.00
23321;BME280;33376;51.306;4.752;2023-05-20T10:30:49;101511.66;;;22.78;100.00
23321;BME280;33376;51.306;4.752;2023-05-20T10:33:16;101611.25;;;21.86;100.00
23321;BME280;33376;51.306;4.752;2023-05-20T10:35:45;101644.28;;;22.58;100.00
23321;BME280;33376;51.306;4.752;2023-05-20T10:38:11;101521.34;;;22.62;100.00
23321;BME280;33376;51.306;4.752;2023-05-20T10:40:37;101537.72;;;22.60;100.00
23321;BME280;33376;51.306;4.752;2023-05-20T10:43:09;101558.13;;;21.96;100.00
23321;BME280;33376;51.306;4.752;2023-05-20T10:45:49;101516.38;;;22.19;100.00
23321;BME280;33376;51.306;4.752;2023-05-20T10:48:24;101524.19;;;22.70;100.00
23321;BME280;33376;51.306;4.752;2023-05-20T10:50:50;101568.84;;;22.36;100.00
23321;BME280;33376;51.306;4.752;2023-05-20T10:53:15;101653.41;;;22.66;100.00
23321;BME280;33376;51.306;4.752;2023-05-20T10:55:46;101540.00;;;22.65;100.00
23321;BME280;33376;51.306;4.752;2023-05-20T10:58:13;101660.78;;;22.74;100.00
23321;BME280;33376;51.306;4.752;2023-05-20T11:00:38;101504.50;;;22.87;100.00
23321;BME280;33376;51.306;4.752;2023-05-20T11:03:05;101597.00;;;22.24;100.00
23321;BME280;33376;51.306;4.752;2023-05-20T11:05:30;101599.34;;;21.89;100.00
23321;BME280;33376;51.306;4.752;2023-05-20T11:08:00;101583.19;;;22.17;100.00
23321;BME280;33376;51.306;4.752;2023-05-20T11:10:26;101622.25;;;22.62;100.00
23321;BME280;33376;51.306;4.752;2023-05-20T11:12:51;101548.25;;;22.63;100.00
23321;BME280;33376;51.306;4.752;2023-05-20T11:15:17;101537.13;;;22.38;100.00
23321;BME280;33376;51.306;4.752;2023-05-20T11:17:56;101557.34;;;22.15;100.00
23321;BME280;33376;51.306;4.752;2023-05-20T11:20:22;101636.03;;;21.70;100.00
23321;BME280;33376;51.306;4.752;2023-05-20T11:22:51;101597.34;;;21.81;100.00
23321;BME280;33376;51.306;4.752;2023-05-20T11:25:17;101594.19;;;22.44;100.00
23321;BME280;33376;51.306;4.752;2023-05-20T11:27:43;101577.56;;;22.58;100.00
23321;BME280;33376;51.306;4.752;2023-05-20T11:30:09;101593.28;;;23.10;100.00
23321;BME280;33376;51.306;4.752;2023-05-20T11:32:35;101642.16;;;22.80;100.00
23321;BME280;33376;51.306;4.752;2023-05-20T11:35:00;101667.44;;;22.41;100.00
23321;BME280;33376;51.306;4.752;2023-05-20T11:37:25;101637.78;;;21.71;100.00
23321;BME280;33376;51.306;4.752;2023-05-20T11:40:06;101626.81;;;22.03;100.00
23321;BME280;33376;51.306;4.752;2023-05-20T11:42:32;101686.00;;;21.76;100.00
23321;BME280;33376;51.306;4.752;2023-05-20T11:44:58;101597.16;;;22.22;100.00
23321;BME280;33376;51.306;4.752;2023-05-20T11:47:24;101618.66;;;21.84;100.00
23321;BME280;33376;51.306;4.752;2023-05-20T11:49:52;101730.88;;;22.86;100.00
23321;BME280;33376;51.306;4.752;2023-05-20T11:52:17;101587.19;;;23.08;100.00
23321;BME280;33376;51.306;4.752;2023-05-20T11:54:42;101614.13;;;22.91;100.00
23321;BME280;33376;51.306;4.752;2023-05-20T11:57:08;101593.00;;;22.18;100.00
23321;BME280;33376;51.306;4.752;2023-05-20T11:59:33;101658.09;;;22.06;100.00
23321;BME280;33376;51.306;4.752;2023-05-20T12:01:58;101554.06;;;22.30;100.00
23321;BME280;33376;51.306;4.752;2023-05-20T12:04:23;101545.53;;;22.73;100.00
23321;BME280;33376;51.306;4.752;2023-05-20T12:06:49;101570.72;;;22.35;100.00
23321;BME280;33376;51.306;4.752;2023-05-20T12:09:15;101629.19;;;22.93;100.00
23321;BME280;33376;51.306;4.752;2023-05-20T12:11:40;101588.56;;;23.12;100.00
23321;BME280;33376;51.306;4.752;2023-05-20T12:14:06;101590.91;;;22.88;100.00
23321;BME280;33376;51.306;4.752;2023-05-20T12:16:32;101613.19;;;22.14;100.00
23321;BME280;33376;51.306;4.752;2023-05-20T12:18:57;101619.19;;;21.48;100.00
23321;BME280;33376;51.306;4.752;2023-05-20T12:21:22;101644.09;;;21.10;100.00
23321;BME280;33376;51.306;4.752;2023-05-20T12:23:48;101648.88;;;21.27;100.00
23321;BME280;33376;51.306;4.752;2023-05-20T12:26:13;101709.84;;;21.30;100.00
23321;BME280;33376;51.306;4.752;2023-05-20T12:28:38;101690.41;;;21.36;100.00
23321;BME280;33376;51.306;4.752;2023-05-20T12:31:04;101709.34;;;21.66;100.00
23321;BME280;33376;51.306;4.752;2023-05-20T12:33:29;101653.53;;;21.97;100.00
23321;BME280;33376;51.306;4.752;2023-05-20T12:35:55;101684.41;;;21.32;100.00
23321;BME280;33376;51.306;4.752;2023-05-20T12:38:20;101708.09;;;21.49;100.00
23321;BME280;33376;51.306;4.752;2023-05-20T12:40:45;101766.13;;;21.76;100.00
23321;BME280;33376;51.306;4.752;2023-05-20T12:43:11;101666.72;;;21.90;100.00
23321;BME280;33376;51.306;4.752;2023-05-20T12:45:36;101554.19;;;22.95;100.00